createdAt,value
2018-04-14T00:00:02.164Z,8.2
2018-04-14T00:05:01.989Z,8.2
2018-04-14T00:10:01.325Z,8.3
2018-04-14T00:15:02.492Z,8.2
2018-04-14T00:20:01.389Z,8.2
2018-04-14T00:25:01.596Z,8.2
2018-04-14T00:30:01.735Z,8.2
2018-04-14T00:35:02.070Z,8.2
2018-04-14T00:40:01.471Z,8.1
2018-04-14T00:45:01.248Z,8.3
2018-04-14T00:50:01.725Z,8.3
2018-04-14T00:55:02.118Z,8.4
2018-04-14T01:00:01.241Z,8.3
2018-04-14T01:05:02.262Z,8.3
2018-04-14T01:10:01.331Z,8.2
2018-04-14T01:15:02.082Z,8.2
2018-04-14T01:20:01.983Z,8.3
2018-04-14T01:25:02.236Z,8.2
2018-04-14T01:30:02.164Z,8.2
2018-04-14T01:35:01.169Z,8.3
2018-04-14T01:40:01.362Z,8.2
2018-04-14T01:45:01.705Z,8.2
2018-04-14T01:50:01.630Z,8.1
2018-04-14T01:55:01.425Z,8
2018-04-14T02:00:02.088Z,8
2018-04-14T02:05:01.399Z,8.1
2018-04-14T02:10:01.335Z,7.9
2018-04-14T02:15:01.686Z,8
2018-04-14T02:20:01.823Z,8
2018-04-14T02:25:01.566Z,8.1
2018-04-14T02:30:02.516Z,8.1
2018-04-14T02:35:02.015Z,8.2
2018-04-14T02:40:01.990Z,8.3
2018-04-14T02:45:01.416Z,8.3
2018-04-14T02:50:02.668Z,8.3
2018-04-14T02:55:01.179Z,8.4
2018-04-14T03:00:01.744Z,8.4
2018-04-14T03:05:01.729Z,8.5
2018-04-14T03:10:02.019Z,8.5
2018-04-14T03:15:01.231Z,8.6
2018-04-14T03:20:01.463Z,8.6
2018-04-14T03:25:01.755Z,8.6
2018-04-14T03:30:01.226Z,8.6
2018-04-14T03:35:01.540Z,8.7
2018-04-14T03:40:02.049Z,8.7
2018-04-14T03:45:02.057Z,8.7
2018-04-14T03:50:01.813Z,8.7
2018-04-14T03:55:02.489Z,8.7
2018-04-14T04:00:01.671Z,8.7
2018-04-14T04:05:01.971Z,8.6
2018-04-14T04:10:01.926Z,8.6
2018-04-14T04:15:02.178Z,8.6
2018-04-14T04:20:01.303Z,8.7
2018-04-14T04:25:01.384Z,8.7
2018-04-14T04:30:02.507Z,8.7
2018-04-14T04:35:01.710Z,8.7
2018-04-14T04:40:01.847Z,8.7
2018-04-14T04:45:01.421Z,8.7
2018-04-14T04:50:01.743Z,8.7
2018-04-14T04:55:01.556Z,8.6
2018-04-14T05:00:01.308Z,8.7
2018-04-14T05:05:01.795Z,8.7
2018-04-14T05:10:01.942Z,8.7
2018-04-14T05:15:02.177Z,8.7
2018-04-14T05:20:01.962Z,8.7
2018-04-14T05:25:02.136Z,8.7
2018-04-14T05:30:01.661Z,8.7
2018-04-14T05:35:01.647Z,8.7
2018-04-14T05:40:02.547Z,8.7
2018-04-14T05:45:01.488Z,8.7
2018-04-14T05:50:01.707Z,8.8
2018-04-14T05:55:02.375Z,8.8
2018-04-14T06:00:01.646Z,8.8
2018-04-14T06:05:01.220Z,8.8
2018-04-14T06:10:01.988Z,8.8
2018-04-14T06:15:01.770Z,8.8
2018-04-14T06:20:01.862Z,8.9
2018-04-14T06:25:01.686Z,8.9
2018-04-14T06:30:01.894Z,8.9
2018-04-14T06:35:01.721Z,9
2018-04-14T06:40:01.714Z,9
2018-04-14T06:45:02.384Z,9
2018-04-14T06:50:01.425Z,9
2018-04-14T06:55:01.220Z,9.1
2018-04-14T07:00:01.818Z,9
2018-04-14T07:05:01.643Z,9
2018-04-14T07:10:02.240Z,8.9
2018-04-14T07:15:01.375Z,8.9
2018-04-14T07:20:02.287Z,8.9
2018-04-14T07:25:01.280Z,9
2018-04-14T07:30:01.435Z,9
2018-04-14T07:35:01.380Z,9
2018-04-14T07:40:01.970Z,9
2018-04-14T07:45:01.920Z,9
2018-04-14T07:50:01.281Z,9.1
2018-04-14T07:55:02.555Z,9.2
2018-04-14T08:00:01.419Z,9.2
2018-04-14T08:05:01.619Z,9.2
2018-04-14T08:10:02.477Z,9.3
2018-04-14T08:15:01.642Z,9.4
2018-04-14T08:20:01.757Z,9.3
2018-04-14T08:25:01.582Z,9.4
2018-04-14T08:30:01.858Z,9.4
2018-04-14T08:35:01.235Z,9.4
2018-04-14T08:40:01.395Z,9.4
2018-04-14T08:45:01.884Z,9.5
2018-04-14T08:50:01.488Z,9.5
2018-04-14T08:55:01.488Z,9.4
2018-04-14T09:00:01.714Z,9.4
2018-04-14T09:05:02.020Z,9.4
2018-04-14T09:10:01.997Z,9.4
2018-04-14T09:15:01.933Z,9.4
2018-04-14T09:20:01.621Z,9.4
2018-04-14T09:25:01.220Z,9.5
2018-04-14T09:30:02.566Z,9.5
2018-04-14T09:35:01.224Z,9.5
2018-04-14T09:40:01.260Z,9.6
2018-04-14T09:45:01.371Z,9.5
2018-04-14T09:50:01.758Z,9.4
2018-04-14T09:55:01.252Z,9.4
2018-04-14T10:00:02.006Z,9.4
2018-04-14T10:05:01.744Z,9.4
2018-04-14T10:10:01.923Z,9.4
2018-04-14T10:15:02.055Z,9.4
2018-04-14T10:20:02.389Z,9.4
2018-04-14T10:25:02.057Z,9.4
2018-04-14T10:30:02.010Z,9.5
2018-04-14T10:35:02.020Z,9.5
2018-04-14T10:40:02.067Z,9.5
2018-04-14T10:45:01.865Z,9.5
2018-04-14T10:50:01.615Z,9.5
2018-04-14T10:55:02.406Z,9.4
2018-04-14T11:00:01.901Z,9.3
2018-04-14T11:05:01.215Z,9.3
2018-04-14T11:10:01.527Z,9.3
2018-04-14T11:15:01.716Z,9.3
2018-04-14T11:20:01.553Z,9.3
2018-04-14T11:25:01.881Z,9.3
2018-04-14T11:30:02.231Z,9.3
2018-04-14T11:35:01.241Z,9.3
2018-04-14T11:40:02.160Z,9.3
2018-04-14T11:45:02.469Z,9.4
2018-04-14T11:50:01.491Z,9.4
2018-04-14T11:55:01.788Z,9.4
2018-04-14T12:00:01.243Z,9.4
2018-04-14T12:05:02.306Z,9.4
2018-04-14T12:10:01.903Z,9.4
2018-04-14T12:15:02.021Z,9.4
2018-04-14T12:20:01.855Z,9.3
2018-04-14T12:25:02.385Z,9.4
2018-04-14T12:30:01.901Z,9.4
2018-04-14T12:35:02.007Z,9.4
2018-04-14T12:40:01.888Z,9.3
2018-04-14T12:45:02.031Z,9.3
2018-04-14T12:50:02.057Z,9.3
2018-04-14T12:55:01.791Z,9.3
2018-04-14T13:00:01.925Z,9.3
2018-04-14T13:05:01.759Z,9.3
2018-04-14T13:10:01.795Z,9.4
2018-04-14T13:15:02.463Z,9.4
2018-04-14T13:20:02.190Z,9.4
2018-04-14T13:25:01.228Z,9.4
2018-04-14T13:30:02.462Z,9.5
2018-04-14T13:35:01.384Z,9.5
2018-04-14T13:40:01.263Z,9.5
2018-04-14T13:45:01.878Z,9.5
2018-04-14T13:50:02.160Z,9.5
2018-04-14T13:55:01.475Z,9.5
2018-04-14T14:00:01.448Z,9.4
2018-04-14T14:05:02.446Z,9.4
2018-04-14T14:10:01.670Z,9.4
2018-04-14T14:15:01.611Z,9.3
2018-04-14T14:20:01.829Z,9.3
2018-04-14T14:25:02.466Z,9.3
2018-04-14T14:30:01.927Z,9.3
2018-04-14T14:35:01.224Z,9.3
2018-04-14T14:40:01.997Z,9.3
2018-04-14T14:45:02.177Z,9.2
2018-04-14T14:50:01.524Z,9.2
2018-04-14T14:55:01.287Z,9.2
2018-04-14T15:00:01.746Z,9.2
2018-04-14T15:05:01.855Z,9.2
2018-04-14T15:10:01.820Z,9.2
2018-04-14T15:15:01.274Z,9.2
2018-04-14T15:20:01.491Z,9.2
2018-04-14T15:25:01.273Z,9.2
2018-04-14T15:30:01.781Z,9.2
2018-04-14T15:35:01.778Z,9.2
2018-04-14T15:40:01.827Z,9.2
2018-04-14T15:45:01.585Z,9.2
2018-04-14T15:50:02.437Z,9.2
2018-04-14T15:55:01.640Z,9.3
2018-04-14T16:00:02.078Z,9.3
2018-04-14T16:05:01.503Z,9.2
2018-04-14T16:10:02.352Z,9.3
2018-04-14T16:15:01.174Z,9.3
2018-04-14T16:20:01.937Z,9.3
2018-04-14T16:25:01.839Z,9.3
2018-04-14T16:30:01.613Z,9.3
2018-04-14T16:35:02.131Z,9.3
2018-04-14T16:40:01.993Z,9.3
2018-04-14T16:45:01.239Z,9.3
2018-04-14T16:50:01.766Z,9.3
2018-04-14T16:55:01.392Z,9.3
2018-04-14T17:00:02.001Z,9.3
2018-04-14T17:05:01.978Z,9.3
2018-04-14T17:10:02.020Z,9.3
2018-04-14T17:15:01.765Z,9.3
2018-04-14T17:20:02.126Z,9.4
2018-04-14T17:25:02.067Z,9.4
2018-04-14T17:30:01.939Z,9.4
2018-04-14T17:35:01.525Z,9.4
2018-04-14T17:40:02.403Z,9.4
2018-04-14T17:45:01.542Z,9.4
2018-04-14T17:50:01.608Z,9.4
2018-04-14T17:55:01.356Z,9.4
2018-04-14T18:00:01.848Z,9.4
2018-04-14T18:05:01.578Z,9.4
2018-04-14T18:10:01.924Z,9.4
2018-04-14T18:15:02.215Z,9.4
2018-04-14T18:20:02.923Z,9.4
2018-04-14T18:25:01.638Z,9.3
2018-04-14T18:30:01.275Z,9.3
2018-04-14T18:35:01.675Z,9.3
2018-04-14T18:40:01.590Z,9.3
2018-04-14T18:45:02.174Z,9.3
2018-04-14T18:50:01.756Z,9.3
2018-04-14T18:55:01.956Z,9.3
2018-04-14T19:00:01.301Z,9.2
2018-04-14T19:05:01.742Z,9.3
2018-04-14T19:10:01.970Z,9.3
2018-04-14T19:15:02.653Z,9.3
2018-04-14T19:20:01.476Z,9.3
2018-04-14T19:25:02.197Z,9.3
2018-04-14T19:30:01.735Z,9.4
2018-04-14T19:35:01.937Z,9.4
2018-04-14T19:40:02.109Z,9.4
2018-04-14T19:45:02.292Z,9.4
2018-04-14T19:50:01.417Z,9.4
2018-04-14T19:55:02.177Z,9.5
2018-04-14T20:00:01.440Z,9.5
2018-04-14T20:05:02.376Z,9.5
2018-04-14T20:10:01.819Z,9.5
2018-04-14T20:15:01.553Z,9.5
2018-04-14T20:20:01.901Z,9.5
2018-04-14T20:25:02.225Z,9.5
2018-04-14T20:30:01.652Z,9.5
2018-04-14T20:35:01.749Z,9.5
2018-04-14T20:40:01.286Z,9.5
2018-04-14T20:45:01.723Z,9.4
2018-04-14T20:50:01.551Z,9.4
2018-04-14T20:55:01.424Z,9.4
2018-04-14T21:00:02.299Z,9.3
2018-04-14T21:05:02.033Z,9.4
2018-04-14T21:10:01.211Z,9.3
2018-04-14T21:15:02.628Z,9.4
2018-04-14T21:20:01.288Z,9.3
2018-04-14T21:25:01.387Z,9.3
2018-04-14T21:30:01.221Z,9.3
2018-04-14T21:35:02.268Z,9.3
2018-04-14T21:40:01.216Z,9.2
2018-04-14T21:45:01.401Z,9.2
2018-04-14T21:50:01.329Z,9.1
2018-04-14T21:55:01.576Z,9.1
2018-04-14T22:00:01.409Z,9
2018-04-14T22:05:01.345Z,9
2018-04-14T22:10:02.189Z,8.9
2018-04-14T22:15:01.988Z,8.8
2018-04-14T22:20:01.979Z,8.8
2018-04-14T22:25:01.363Z,8.6
2018-04-14T22:30:01.559Z,8.6
2018-04-14T22:35:02.172Z,8.6
2018-04-14T22:40:01.440Z,8.5
2018-04-14T22:45:01.663Z,8.4
2018-04-14T22:50:01.411Z,8.3
2018-04-14T22:55:01.304Z,8.2
2018-04-14T23:00:01.810Z,8.2
2018-04-14T23:05:01.590Z,8.1
2018-04-14T23:10:01.561Z,8
2018-04-14T23:15:02.439Z,8
2018-04-14T23:20:01.647Z,8.1
2018-04-14T23:25:01.480Z,8
2018-04-14T23:30:01.869Z,8.1
2018-04-14T23:35:01.874Z,8.1
2018-04-14T23:40:02.158Z,8.1
2018-04-14T23:45:01.699Z,8.1
2018-04-14T23:50:02.063Z,8.2
2018-04-14T23:55:02.086Z,8.2
